createdAt,value
2023-05-15T00:02:02.229Z,10.75
2023-05-15T00:04:29.625Z,10.73
2023-05-15T00:06:56.914Z,10.71
2023-05-15T00:09:24.451Z,10.70
2023-05-15T00:11:52.250Z,10.69
2023-05-15T00:14:19.715Z,10.68
2023-05-15T00:16:47.258Z,10.69
2023-05-15T00:19:14.986Z,10.73
2023-05-15T00:21:42.872Z,10.76
2023-05-15T00:24:10.281Z,10.79
2023-05-15T00:26:37.670Z,10.77
2023-05-15T00:29:05.015Z,10.75
2023-05-15T00:31:33.784Z,10.70
2023-05-15T00:34:01.330Z,10.62
2023-05-15T00:36:30.225Z,10.53
2023-05-15T00:38:57.770Z,10.46
2023-05-15T00:41:25.403Z,10.40
2023-05-15T00:43:53.388Z,10.35
2023-05-15T00:46:21.581Z,10.33
2023-05-15T00:48:50.539Z,10.32
2023-05-15T00:51:18.473Z,10.31
2023-05-15T00:53:46.026Z,10.29
2023-05-15T00:56:13.625Z,10.30
2023-05-15T00:58:41.063Z,10.34
2023-05-15T01:01:08.769Z,10.36
2023-05-15T01:03:37.855Z,10.35
2023-05-15T01:06:05.656Z,10.32
2023-05-15T01:08:39.084Z,10.28
2023-05-15T01:11:07.532Z,10.24
2023-05-15T01:13:34.942Z,10.21
2023-05-15T01:16:02.299Z,10.19
2023-05-15T01:18:32.801Z,10.17
2023-05-15T01:21:06.545Z,10.16
2023-05-15T01:24:09.095Z,10.17
2023-05-15T01:26:45.737Z,10.17
2023-05-15T01:29:15.203Z,10.17
2023-05-15T01:31:42.904Z,10.16
2023-05-15T01:34:10.454Z,10.17
2023-05-15T01:36:57.016Z,10.18
2023-05-15T01:39:26.317Z,10.19
2023-05-15T01:42:14.263Z,10.19
2023-05-15T01:44:50.208Z,10.12
2023-05-15T01:47:20.269Z,10.01
2023-05-15T01:49:47.626Z,9.88
2023-05-15T01:52:28.133Z,9.72
2023-05-15T01:54:55.586Z,9.52
2023-05-15T01:57:22.927Z,9.34
2023-05-15T01:59:51.420Z,9.22
2023-05-15T02:02:18.804Z,9.15
2023-05-15T02:04:46.858Z,9.11
2023-05-15T02:07:14.224Z,9.05
2023-05-15T02:09:41.643Z,9.03
2023-05-15T02:12:09.915Z,9.00
2023-05-15T02:14:37.447Z,8.96
2023-05-15T02:17:04.914Z,8.92
2023-05-15T02:19:33.796Z,8.88
2023-05-15T02:22:03.991Z,8.85
2023-05-15T02:24:31.531Z,8.84
2023-05-15T02:27:16.166Z,8.83
2023-05-15T02:30:01.849Z,8.82
2023-05-15T02:32:38.423Z,8.80
2023-05-15T02:35:06.073Z,8.80
2023-05-15T02:37:35.814Z,8.78
2023-05-15T02:40:03.139Z,8.78
2023-05-15T02:42:30.638Z,8.79
2023-05-15T02:44:58.021Z,8.81
2023-05-15T02:47:25.550Z,8.82
2023-05-15T02:49:53.183Z,8.85
2023-05-15T02:52:20.683Z,8.88
2023-05-15T02:54:48.263Z,8.91
2023-05-15T02:57:15.842Z,8.95
2023-05-15T02:59:43.226Z,9.02
2023-05-15T03:02:10.447Z,9.08
2023-05-15T03:04:38.083Z,9.17
2023-05-15T03:07:05.464Z,9.28
2023-05-15T03:09:32.668Z,9.38
2023-05-15T03:12:00.104Z,9.48
2023-05-15T03:14:27.448Z,9.58
2023-05-15T03:16:54.906Z,9.66
2023-05-15T03:19:22.445Z,9.73
2023-05-15T03:21:49.745Z,9.80
2023-05-15T03:24:17.084Z,9.88
2023-05-15T03:26:45.314Z,9.97
2023-05-15T03:29:13.332Z,10.05
2023-05-15T03:31:41.063Z,10.15
2023-05-15T03:34:08.267Z,10.25
2023-05-15T03:36:35.738Z,10.36
2023-05-15T03:39:03.248Z,10.46
2023-05-15T03:41:30.723Z,10.57
2023-05-15T03:44:00.935Z,10.69
2023-05-15T03:46:28.264Z,10.78
2023-05-15T03:48:56.325Z,10.86
2023-05-15T03:51:24.300Z,10.95
2023-05-15T03:53:54.330Z,11.06
2023-05-15T03:56:23.527Z,11.18
2023-05-15T03:58:50.962Z,11.30
2023-05-15T04:01:18.266Z,11.42
2023-05-15T04:03:45.731Z,11.54
2023-05-15T04:06:13.215Z,11.66
2023-05-15T04:08:41.499Z,11.78
2023-05-15T04:11:10.662Z,11.93
2023-05-15T04:13:38.006Z,12.08
2023-05-15T04:16:05.632Z,12.24
2023-05-15T04:18:32.993Z,12.40
2023-05-15T04:21:00.354Z,12.58
2023-05-15T04:23:27.554Z,12.77
2023-05-15T04:25:55.222Z,12.98
2023-05-15T04:28:22.690Z,13.20
2023-05-15T04:30:50.174Z,13.44
2023-05-15T04:33:17.631Z,13.71
2023-05-15T04:35:45.028Z,13.98
2023-05-15T04:38:12.480Z,14.26
2023-05-15T04:40:39.869Z,14.54
2023-05-15T04:43:07.118Z,14.84
2023-05-15T04:45:34.544Z,15.12
2023-05-15T04:48:02.042Z,15.39
2023-05-15T04:50:29.519Z,15.65
2023-05-15T04:52:57.058Z,15.90
2023-05-15T04:55:24.468Z,16.13
2023-05-15T04:57:52.103Z,16.35
2023-05-15T05:00:19.633Z,16.58
2023-05-15T05:02:47.485Z,16.84
2023-05-15T05:05:15.068Z,17.08
2023-05-15T05:07:44.451Z,17.30
2023-05-15T05:10:12.170Z,17.59
2023-05-15T05:12:39.662Z,17.82
2023-05-15T05:15:08.151Z,18.03
2023-05-15T05:17:35.560Z,18.20
2023-05-15T05:20:02.999Z,18.36
2023-05-15T05:22:30.897Z,18.51
2023-05-15T05:24:58.084Z,18.65
2023-05-15T05:27:25.296Z,18.77
2023-05-15T05:29:54.460Z,18.91
2023-05-15T05:32:22.027Z,19.06
2023-05-15T05:34:49.421Z,19.18
2023-05-15T05:37:16.881Z,19.31
2023-05-15T05:39:44.121Z,19.47
2023-05-15T05:42:11.421Z,19.61
2023-05-15T05:44:38.697Z,19.74
2023-05-15T05:47:06.493Z,19.87
2023-05-15T05:49:34.210Z,20.00
2023-05-15T05:52:08.444Z,20.14
2023-05-15T05:54:36.015Z,20.28
2023-05-15T05:57:03.477Z,20.41
2023-05-15T05:59:30.838Z,20.53
2023-05-15T06:01:58.242Z,20.66
2023-05-15T06:04:25.936Z,20.78
2023-05-15T06:06:54.444Z,20.92
2023-05-15T06:09:21.646Z,21.10
2023-05-15T06:11:49.399Z,21.24
2023-05-15T06:14:16.973Z,21.38
2023-05-15T06:16:44.425Z,21.53
2023-05-15T06:19:11.769Z,21.65
2023-05-15T06:21:39.421Z,21.78
2023-05-15T06:24:06.735Z,21.92
2023-05-15T06:26:34.039Z,22.01
2023-05-15T06:29:01.423Z,22.15
2023-05-15T06:31:28.952Z,22.32
2023-05-15T06:33:56.357Z,22.45
2023-05-15T06:36:24.328Z,22.55
2023-05-15T06:38:51.749Z,22.68
2023-05-15T06:41:19.092Z,22.79
2023-05-15T06:43:46.450Z,22.89
2023-05-15T06:46:16.491Z,23.00
2023-05-15T06:48:43.896Z,23.14
2023-05-15T06:51:11.285Z,23.29
2023-05-15T06:53:38.552Z,23.44
2023-05-15T06:56:06.367Z,23.61
2023-05-15T06:58:33.904Z,23.78
2023-05-15T07:01:04.047Z,23.93
2023-05-15T07:03:31.497Z,24.06
2023-05-15T07:05:58.963Z,24.11
2023-05-15T07:08:27.060Z,24.13
2023-05-15T07:10:54.476Z,24.15
2023-05-15T07:13:21.635Z,24.14
2023-05-15T07:15:49.150Z,24.15
2023-05-15T07:18:16.596Z,24.20
2023-05-15T07:20:43.958Z,24.23
2023-05-15T07:23:11.368Z,24.27
2023-05-15T07:25:38.766Z,24.33
2023-05-15T07:28:06.302Z,24.43
2023-05-15T07:30:33.615Z,24.56
2023-05-15T07:33:01.301Z,24.70
2023-05-15T07:35:28.739Z,24.79
2023-05-15T07:37:56.243Z,24.92
2023-05-15T07:40:23.775Z,25.07
2023-05-15T07:42:51.325Z,25.19
2023-05-15T07:45:19.053Z,25.29
2023-05-15T07:47:47.444Z,25.38
2023-05-15T07:50:15.007Z,25.44
2023-05-15T07:52:43.211Z,25.55
2023-05-15T07:55:11.080Z,25.68
2023-05-15T07:57:40.081Z,25.77
2023-05-15T08:00:13.182Z,25.83
2023-05-15T08:02:41.666Z,25.92
2023-05-15T08:05:09.621Z,26.01
2023-05-15T08:07:37.189Z,26.08
2023-05-15T08:10:06.513Z,26.17
2023-05-15T08:12:33.953Z,26.26
2023-05-15T08:15:01.454Z,26.36
2023-05-15T08:17:28.907Z,26.46
2023-05-15T08:19:56.302Z,26.55
2023-05-15T08:22:23.783Z,26.67
2023-05-15T08:24:51.261Z,26.81
2023-05-15T08:27:18.686Z,26.94
2023-05-15T08:29:46.283Z,27.03
2023-05-15T08:32:13.784Z,27.11
2023-05-15T08:34:40.986Z,27.17
2023-05-15T08:37:08.292Z,27.24
2023-05-15T08:39:35.621Z,27.31
2023-05-15T08:42:08.607Z,27.42
2023-05-15T08:44:36.728Z,27.41
2023-05-15T08:47:04.480Z,27.32
2023-05-15T08:49:42.248Z,27.33
2023-05-15T08:52:10.073Z,27.27
2023-05-15T08:54:39.208Z,27.30
2023-05-15T08:57:07.463Z,27.39
2023-05-15T08:59:34.798Z,27.53
2023-05-15T09:02:02.234Z,27.74
2023-05-15T09:04:29.622Z,27.88
2023-05-15T09:06:57.309Z,27.95
2023-05-15T09:09:24.658Z,28.07
2023-05-15T09:11:52.022Z,28.13
2023-05-15T09:14:20.109Z,28.19
2023-05-15T09:16:51.100Z,28.33
2023-05-15T09:19:19.622Z,28.29
2023-05-15T09:21:46.910Z,28.22
2023-05-15T09:24:18.139Z,28.26
2023-05-15T09:26:46.596Z,28.26
2023-05-15T09:29:18.929Z,28.26
2023-05-15T09:31:49.579Z,28.32
2023-05-15T09:34:17.249Z,28.26
2023-05-15T09:36:47.450Z,28.22
2023-05-15T09:39:14.869Z,28.24
2023-05-15T09:41:44.184Z,28.36
2023-05-15T09:44:25.993Z,28.63
2023-05-15T09:46:53.591Z,28.90
2023-05-15T09:49:20.915Z,29.19
2023-05-15T09:51:48.875Z,29.47
2023-05-15T09:54:19.392Z,29.67
2023-05-15T09:56:47.342Z,29.86
2023-05-15T09:59:16.044Z,30.04
2023-05-15T10:01:46.535Z,30.05
2023-05-15T10:04:14.156Z,29.98
2023-05-15T10:06:51.032Z,29.87
2023-05-15T10:09:18.507Z,29.81
2023-05-15T10:11:51.041Z,29.69
2023-05-15T10:14:18.293Z,29.47
2023-05-15T10:16:45.837Z,29.35
2023-05-15T10:19:14.140Z,29.36
2023-05-15T10:21:42.024Z,29.46
2023-05-15T10:24:10.196Z,29.54
2023-05-15T10:26:42.256Z,29.63
2023-05-15T10:29:13.240Z,29.75
2023-05-15T10:31:41.075Z,29.82
2023-05-15T10:34:09.584Z,29.91
2023-05-15T10:36:38.039Z,30.09
2023-05-15T10:39:06.277Z,30.03
2023-05-15T10:41:36.341Z,29.97
2023-05-15T10:44:03.749Z,29.92
2023-05-15T10:46:32.692Z,29.95
2023-05-15T10:49:00.988Z,29.94
2023-05-15T10:51:29.571Z,30.03
2023-05-15T10:53:57.229Z,30.12
2023-05-15T10:56:35.211Z,30.14
2023-05-15T10:59:08.263Z,30.24
2023-05-15T11:01:37.425Z,30.19
2023-05-15T11:04:11.428Z,30.09
2023-05-15T11:06:42.953Z,30.14
2023-05-15T11:09:22.798Z,30.27
2023-05-15T11:12:18.425Z,30.21
2023-05-15T11:14:55.801Z,30.15
2023-05-15T11:17:23.683Z,30.16
2023-05-15T11:19:51.252Z,30.15
2023-05-15T11:22:36.336Z,30.11
2023-05-15T11:25:12.207Z,30.13
2023-05-15T11:27:41.969Z,30.12
2023-05-15T11:30:22.949Z,30.03
2023-05-15T11:32:52.001Z,30.19
2023-05-15T11:35:23.936Z,30.46
2023-05-15T11:38:05.696Z,30.69
2023-05-15T11:40:43.707Z,30.91
2023-05-15T11:43:17.704Z,31.02
2023-05-15T11:45:51.192Z,31.08
2023-05-15T11:48:18.767Z,31.23
2023-05-15T11:50:46.354Z,31.41
2023-05-15T11:53:14.013Z,31.49
2023-05-15T11:55:43.903Z,31.57
2023-05-15T11:58:18.444Z,31.67
2023-05-15T12:00:47.412Z,31.66
2023-05-15T12:03:20.808Z,31.66
2023-05-15T12:05:58.403Z,31.72
2023-05-15T12:08:34.749Z,31.80
2023-05-15T12:11:02.543Z,31.77
2023-05-15T12:13:30.989Z,31.79
2023-05-15T12:15:58.741Z,31.80
2023-05-15T12:18:26.354Z,31.77
2023-05-15T12:20:54.190Z,31.82
2023-05-15T12:23:22.836Z,31.88
2023-05-15T12:25:51.270Z,31.80
2023-05-15T12:28:18.742Z,31.56
2023-05-15T12:30:46.318Z,31.16
2023-05-15T12:33:13.723Z,30.94
2023-05-15T12:35:49.935Z,31.00
2023-05-15T12:38:17.303Z,31.13
2023-05-15T12:40:46.633Z,30.89
2023-05-15T12:43:14.346Z,30.68
2023-05-15T12:45:42.076Z,30.70
2023-05-15T12:48:15.015Z,30.79
2023-05-15T12:50:44.737Z,30.91
2023-05-15T12:53:14.034Z,30.98
2023-05-15T12:55:41.504Z,31.19
2023-05-15T12:58:10.585Z,31.47
2023-05-15T13:00:39.163Z,31.70
2023-05-15T13:03:08.433Z,31.80
2023-05-15T13:05:36.332Z,31.88
2023-05-15T13:08:05.143Z,31.68
2023-05-15T13:10:33.771Z,31.30
2023-05-15T13:13:01.559Z,31.19
2023-05-15T13:15:35.735Z,31.45
2023-05-15T13:18:07.429Z,31.49
2023-05-15T13:20:47.154Z,31.30
2023-05-15T13:23:17.195Z,31.20
2023-05-15T13:25:44.710Z,31.23
2023-05-15T13:28:12.265Z,31.15
2023-05-15T13:30:41.863Z,31.07
2023-05-15T13:33:10.896Z,31.13
2023-05-15T13:35:38.675Z,31.31
2023-05-15T13:38:07.631Z,31.47
2023-05-15T13:40:37.526Z,31.51
2023-05-15T13:43:06.837Z,31.61
2023-05-15T13:45:34.627Z,31.71
2023-05-15T13:48:02.000Z,31.76
2023-05-15T13:50:29.597Z,31.92
2023-05-15T13:52:56.953Z,32.08
2023-05-15T13:55:25.936Z,32.14
2023-05-15T13:57:53.463Z,32.19
2023-05-15T14:00:21.014Z,32.26
2023-05-15T14:02:48.677Z,32.14
2023-05-15T14:05:17.042Z,31.93
2023-05-15T14:07:45.215Z,31.74
2023-05-15T14:10:12.708Z,31.40
2023-05-15T14:12:40.515Z,31.22
2023-05-15T14:15:08.592Z,30.96
2023-05-15T14:17:36.013Z,30.46
2023-05-15T14:20:03.513Z,29.85
2023-05-15T14:22:30.942Z,29.36
2023-05-15T14:24:58.232Z,29.10
2023-05-15T14:27:25.827Z,28.96
2023-05-15T14:29:53.451Z,28.98
2023-05-15T14:32:21.120Z,29.17
2023-05-15T14:34:48.607Z,29.46
2023-05-15T14:37:16.088Z,29.87
2023-05-15T14:39:43.530Z,30.39
2023-05-15T14:42:10.990Z,30.83
2023-05-15T14:44:38.505Z,31.19
2023-05-15T14:47:10.187Z,31.43
2023-05-15T14:49:37.978Z,31.49
2023-05-15T14:52:08.098Z,31.53
2023-05-15T14:54:36.044Z,31.43
2023-05-15T14:57:04.070Z,31.43
2023-05-15T14:59:31.861Z,31.51
2023-05-15T15:01:59.380Z,31.40
2023-05-15T15:04:28.168Z,31.28
2023-05-15T15:06:57.381Z,31.14
2023-05-15T15:09:26.411Z,31.01
2023-05-15T15:11:55.148Z,31.03
2023-05-15T15:14:22.478Z,30.91
2023-05-15T15:16:50.271Z,30.63
2023-05-15T15:19:19.904Z,30.49
2023-05-15T15:21:47.929Z,30.46
2023-05-15T15:24:15.581Z,30.56
2023-05-15T15:26:42.951Z,30.68
2023-05-15T15:29:10.332Z,30.84
2023-05-15T15:31:37.682Z,30.83
2023-05-15T15:34:05.865Z,30.71
2023-05-15T15:36:33.401Z,30.81
2023-05-15T15:39:01.067Z,31.01
2023-05-15T15:41:32.427Z,31.11
2023-05-15T15:44:00.137Z,31.08
2023-05-15T15:46:27.662Z,30.97
2023-05-15T15:48:55.208Z,30.67
2023-05-15T15:51:22.635Z,30.28
2023-05-15T15:53:50.131Z,29.94
2023-05-15T15:56:17.652Z,29.85
2023-05-15T15:58:45.093Z,29.88
2023-05-15T16:01:12.471Z,29.91
2023-05-15T16:03:39.977Z,29.96
2023-05-15T16:06:07.752Z,30.02
2023-05-15T16:08:35.216Z,30.00
2023-05-15T16:11:02.651Z,29.97
2023-05-15T16:13:30.051Z,29.92
2023-05-15T16:15:57.473Z,29.81
2023-05-15T16:18:24.959Z,29.66
2023-05-15T16:20:52.351Z,29.43
2023-05-15T16:23:21.437Z,29.21
2023-05-15T16:25:48.788Z,28.97
2023-05-15T16:28:16.180Z,28.66
2023-05-15T16:30:49.304Z,28.32
2023-05-15T16:33:18.465Z,27.88
2023-05-15T16:35:46.203Z,27.38
2023-05-15T16:38:14.107Z,26.90
2023-05-15T16:40:41.744Z,26.49
2023-05-15T16:43:09.050Z,26.14
2023-05-15T16:45:36.601Z,25.81
2023-05-15T16:48:04.524Z,25.49
2023-05-15T16:50:32.288Z,25.21
2023-05-15T16:52:59.856Z,24.92
2023-05-15T16:55:27.403Z,24.66
2023-05-15T16:57:54.852Z,24.40
2023-05-15T17:00:22.187Z,24.17
2023-05-15T17:02:50.323Z,23.92
2023-05-15T17:05:17.666Z,23.65
2023-05-15T17:07:45.306Z,23.39
2023-05-15T17:10:13.211Z,23.16
2023-05-15T17:12:40.723Z,22.92
2023-05-15T17:15:08.492Z,22.71
2023-05-15T17:17:36.086Z,22.47
2023-05-15T17:20:04.225Z,22.25
2023-05-15T17:22:31.829Z,22.02
2023-05-15T17:24:59.130Z,21.79
2023-05-15T17:27:26.541Z,21.57
2023-05-15T17:29:54.017Z,21.41
2023-05-15T17:32:21.835Z,21.24
2023-05-15T17:34:51.782Z,21.07
2023-05-15T17:37:19.154Z,20.90
2023-05-15T17:39:46.643Z,20.74
2023-05-15T17:42:14.047Z,20.59
2023-05-15T17:44:41.625Z,20.45
2023-05-15T17:47:10.400Z,20.30
2023-05-15T17:49:38.674Z,20.13
2023-05-15T17:52:07.180Z,19.94
2023-05-15T17:54:34.341Z,19.75
2023-05-15T17:57:01.942Z,19.56
2023-05-15T17:59:31.285Z,19.39
2023-05-15T18:01:58.806Z,19.26
2023-05-15T18:04:26.378Z,19.12
2023-05-15T18:06:53.712Z,18.97
2023-05-15T18:09:23.899Z,18.87
2023-05-15T18:11:51.691Z,18.77
2023-05-15T18:14:19.088Z,18.64
2023-05-15T18:16:46.459Z,18.54
2023-05-15T18:19:13.859Z,18.44
2023-05-15T18:21:41.269Z,18.36
2023-05-15T18:24:08.706Z,18.26
2023-05-15T18:26:36.101Z,18.17
2023-05-15T18:29:03.755Z,18.06
2023-05-15T18:31:34.832Z,17.98
2023-05-15T18:34:02.762Z,17.89
2023-05-15T18:36:30.245Z,17.79
2023-05-15T18:38:57.611Z,17.71
2023-05-15T18:41:24.981Z,17.64
2023-05-15T18:43:52.457Z,17.59
2023-05-15T18:46:20.300Z,17.55
2023-05-15T18:48:47.996Z,17.51
2023-05-15T18:51:15.346Z,17.47
2023-05-15T18:53:42.726Z,17.40
2023-05-15T18:56:09.964Z,17.34
2023-05-15T18:58:37.686Z,17.29
2023-05-15T19:01:05.208Z,17.24
2023-05-15T19:03:34.209Z,17.17
2023-05-15T19:06:01.691Z,17.10
2023-05-15T19:08:29.040Z,17.02
2023-05-15T19:10:56.495Z,16.92
2023-05-15T19:13:23.883Z,16.84
2023-05-15T19:15:52.271Z,16.77
2023-05-15T19:18:21.123Z,16.71
2023-05-15T19:20:52.349Z,16.65
2023-05-15T19:23:20.930Z,16.59
2023-05-15T19:25:48.547Z,16.51
2023-05-15T19:28:16.249Z,16.42
2023-05-15T19:30:43.622Z,16.33
2023-05-15T19:33:13.154Z,16.23
2023-05-15T19:35:40.974Z,16.13
2023-05-15T19:38:08.294Z,16.04
2023-05-15T19:40:36.108Z,15.95
2023-05-15T19:43:03.494Z,15.87
2023-05-15T19:45:30.900Z,15.79
2023-05-15T19:48:00.411Z,15.71
2023-05-15T19:50:28.347Z,15.63
2023-05-15T19:52:56.079Z,15.58
2023-05-15T19:55:23.463Z,15.56
2023-05-15T19:57:52.177Z,15.55
2023-05-15T20:00:19.694Z,15.53
2023-05-15T20:02:48.027Z,15.51
2023-05-15T20:05:16.205Z,15.49
2023-05-15T20:07:45.328Z,15.47
2023-05-15T20:10:12.746Z,15.45
2023-05-15T20:12:40.653Z,15.42
2023-05-15T20:15:08.795Z,15.40
2023-05-15T20:17:36.252Z,15.39
2023-05-15T20:20:09.777Z,15.39
2023-05-15T20:22:45.844Z,15.38
2023-05-15T20:25:13.384Z,15.36
2023-05-15T20:27:40.664Z,15.32
2023-05-15T20:30:08.504Z,15.25
2023-05-15T20:32:36.531Z,15.15
2023-05-15T20:35:04.299Z,15.05
2023-05-15T20:37:32.303Z,14.95
2023-05-15T20:40:00.418Z,14.87
2023-05-15T20:42:29.228Z,14.78
2023-05-15T20:44:56.660Z,14.70
2023-05-15T20:47:24.238Z,14.65
2023-05-15T20:49:51.686Z,14.59
2023-05-15T20:52:19.220Z,14.53
2023-05-15T20:54:46.784Z,14.47
2023-05-15T20:57:14.136Z,14.42
2023-05-15T20:59:41.838Z,14.36
2023-05-15T21:02:09.087Z,14.29
2023-05-15T21:04:36.506Z,14.19
2023-05-15T21:07:04.107Z,14.09
2023-05-15T21:09:31.955Z,14.02
2023-05-15T21:12:00.135Z,13.95
2023-05-15T21:14:27.517Z,13.92
2023-05-15T21:16:55.005Z,13.90
2023-05-15T21:19:22.409Z,13.92
2023-05-15T21:21:49.749Z,13.95
2023-05-15T21:24:17.039Z,13.97
2023-05-15T21:26:44.471Z,14.02
2023-05-15T21:29:11.684Z,14.08
2023-05-15T21:31:38.990Z,14.14
2023-05-15T21:34:06.329Z,14.20
2023-05-15T21:36:34.494Z,14.25
2023-05-15T21:39:01.810Z,14.32
2023-05-15T21:41:29.077Z,14.39
2023-05-15T21:43:56.434Z,14.49
2023-05-15T21:46:23.868Z,14.61
2023-05-15T21:48:51.232Z,14.73
2023-05-15T21:51:18.599Z,14.87
2023-05-15T21:53:45.954Z,15.02
2023-05-15T21:56:13.414Z,15.12
2023-05-15T21:58:40.796Z,15.18
2023-05-15T22:01:08.029Z,15.23
2023-05-15T22:03:35.570Z,15.28
2023-05-15T22:06:03.277Z,15.33
2023-05-15T22:08:31.071Z,15.35
2023-05-15T22:10:58.719Z,15.34
2023-05-15T22:13:26.290Z,15.34
2023-05-15T22:15:54.076Z,15.35
2023-05-15T22:18:21.753Z,15.35
2023-05-15T22:20:49.134Z,15.35
2023-05-15T22:23:16.376Z,15.33
2023-05-15T22:25:44.306Z,15.30
2023-05-15T22:28:11.829Z,15.28
2023-05-15T22:30:39.088Z,15.25
2023-05-15T22:33:06.786Z,15.21
2023-05-15T22:35:34.134Z,15.17
2023-05-15T22:38:01.370Z,15.13
2023-05-15T22:40:28.859Z,15.09
2023-05-15T22:42:56.628Z,15.06
2023-05-15T22:45:24.523Z,15.03
2023-05-15T22:47:52.017Z,15.02
2023-05-15T22:50:19.626Z,15.01
2023-05-15T22:52:46.988Z,15.02
2023-05-15T22:55:14.254Z,15.04
2023-05-15T22:57:41.612Z,15.05
2023-05-15T23:00:10.083Z,15.06
2023-05-15T23:02:38.837Z,15.07
2023-05-15T23:05:06.774Z,15.08
2023-05-15T23:07:34.164Z,15.09
2023-05-15T23:10:01.739Z,15.10
2023-05-15T23:12:29.683Z,15.08
2023-05-15T23:14:57.138Z,15.05
2023-05-15T23:17:26.409Z,15.02
2023-05-15T23:19:54.052Z,14.98
2023-05-15T23:22:21.575Z,14.95
2023-05-15T23:24:48.972Z,14.94
2023-05-15T23:27:16.200Z,14.96
2023-05-15T23:29:43.575Z,14.99
2023-05-15T23:32:10.788Z,15.03
2023-05-15T23:34:38.300Z,15.07
2023-05-15T23:37:05.832Z,15.08
2023-05-15T23:39:33.319Z,15.10
2023-05-15T23:42:00.762Z,15.11
2023-05-15T23:44:28.876Z,15.12
2023-05-15T23:46:56.314Z,15.12
2023-05-15T23:49:23.908Z,15.13
2023-05-15T23:51:51.217Z,15.14
2023-05-15T23:54:18.557Z,15.16
2023-05-15T23:56:45.869Z,15.16
2023-05-15T23:59:14.054Z,15.19
